Terminal Aerodrome Forecast
Issued by NWS Cleveland, OH

Home | Current Version | Previous Version | Graphics & Text | Print | Product List | Glossary On
Versions: 1 2 3 4 5 6 7 8 9 10 11 12 13 14 15 16 17
000
FTUS41 KCLE 300316 AAA
TAFTOL
TAF AMD
KTOL 300316Z 3003/3024 VRB03KT P6SM SCT007 OVC015
     FM300800 VRB03KT 4SM BR OVC007
      TEMPO 3009/3013 2SM BR OVC004
     FM301500 23008KT P6SM OVC015
     FM301700 23008KT P6SM -SHRA OVC025=

USA.gov is the U.S. government's official web portal to all federal, state and local government web resources and services.